Time;durP1;ratioP1;P1;durP2;ratioP2;P2;SDS_P1;SDS_P2;PMS_P1;PMS_P2;Temp;Humidity;BMP_temperature;BMP_pressure;BME280_temperature;BME280_humidity;BME280_pressure;Samples;Min_cycle;Max_cycle;Signal;HPM_P1;HPM_P2
2021/09/12 08:36:10;;;;;;;;;;;;;;;;;;1044625;27;100240;-64
2021/09/12 08:36:42;;;;;;;10.95;4.40;;;;;;;;;;1041829;27;100726;-48
2021/09/12 08:37:13;;;;;;;16.95;4.65;;;;;;;;;;1045660;27;99959;-48
2021/09/12 08:37:44;;;;;;;12.43;4.63;;;;;;;;;;1026456;28;103586;-48
2021/09/12 08:38:15;;;;;;;6.43;4.30;;;;;;;;;;1029606;28;99970;-48
2021/09/12 08:38:47;;;;;;;16.83;5.35;;;;;;;;;;1030954;28;100407;-48
2021/09/12 08:39:18;;;;;;;9.60;4.05;;;;;;;;;;1036279;27;99920;-48
2021/09/12 08:39:50;;;;;;;13.77;4.88;;;;;;;;;;1043245;27;100415;-46
2021/09/12 08:40:21;;;;;;;10.57;4.80;;;;;;;;;;1046514;27;99910;-49
2021/09/12 08:40:57;;;;;;;12.88;5.18;;;;;;;;;;1046636;27;100810;-46
2021/09/12 08:41:31;;;;;;;11.20;5.28;;;;;;;;;;1045030;27;99943;-52
2021/09/12 08:42:02;;;;;;;13.05;4.82;;;;;;;;;;1042978;27;101579;-49
2021/09/12 08:42:33;;;;;;;13.32;4.45;;;;;;;;;;1045156;27;100145;-50
2021/09/12 08:43:06;;;;;;;11.45;4.60;;;;;;;;;;1042709;27;100589;-48
2021/09/12 08:43:39;;;;;;;6.82;4.30;;;;;;;;;;1044862;27;99227;-49
2021/09/12 08:44:18;;;;;;;7.88;4.70;;;;;;;;;;1043571;27;100815;-47
2021/09/12 08:44:50;;;;;;;16.25;5.25;;;;;;;;;;1044546;27;99995;-47
2021/09/12 08:45:23;;;;;;;16.60;5.03;;;;;;;;;;1041647;27;101322;-48
2021/09/12 08:45:54;;;;;;;18.20;4.93;;;;;;;;;;1040289;28;100600;-49
2021/09/12 08:46:26;;;;;;;10.13;4.97;;;;;;;;;;1042515;27;100461;-47
2021/09/12 08:46:57;;;;;;;9.88;4.82;;;;;;;;;;1045044;27;100019;-48
2021/09/12 08:47:29;;;;;;;7.40;4.38;;;;;;;;;;1043594;27;100484;-48
2021/09/12 08:48:00;;;;;;;6.55;4.43;;;;;;;;;;1044374;27;100123;-47
2021/09/12 08:48:31;;;;;;;12.60;4.55;;;;;;;;;;1043359;27;100435;-47
2021/09/12 08:49:02;;;;;;;8.35;4.47;;;;;;;;;;1041080;27;100158;-47
2021/09/12 08:49:34;;;;;;;9.82;5.05;;;;;;;;;;1043604;27;100534;-47
2021/09/12 08:50:06;;;;;;;9.68;4.43;;;;;;;;;;1044317;27;100158;-48
2021/09/12 08:50:37;;;;;;;8.27;4.20;;;;;;;;;;1043590;27;100905;-47
2021/09/12 08:51:08;;;;;;;11.20;4.22;;;;;;;;;;1045058;27;100008;-49
2021/09/12 08:51:39;;;;;;;10.50;4.50;;;;;;;;;;1040766;27;100500;-46
2021/09/12 08:52:12;;;;;;;11.45;4.50;;;;;;;;;;1040741;28;99986;-46
2021/09/12 08:52:46;;;;;;;8.05;4.78;;;;;;;;;;1042746;27;101422;-46
2021/09/12 08:53:17;;;;;;;9.10;4.40;;;;;;;;;;1045134;27;99888;-52
2021/09/12 08:53:48;;;;;;;12.50;4.60;;;;;;;;;;1043747;27;100487;-49
2021/09/12 08:54:19;;;;;;;10.80;4.40;;;;;;;;;;1042366;27;100144;-49
2021/09/12 08:54:50;;;;;;;10.23;4.47;;;;;;;;;;1039046;28;103247;-47
2021/09/12 08:55:21;;;;;;;8.05;4.57;;;;;;;;;;1042542;27;100083;-62
2021/09/12 08:55:52;;;;;;;14.13;4.88;;;;;;;;;;1041168;27;100481;-59
2021/09/12 08:56:23;;;;;;;12.55;4.93;;;;;;;;;;1041058;27;99938;-59
2021/09/12 08:56:54;;;;;;;6.38;4.32;;;;;;;;;;1042452;27;100545;-58
2021/09/12 08:57:25;;;;;;;10.95;4.68;;;;;;;;;;1033542;28;99933;-62
2021/09/12 08:57:58;;;;;;;10.80;4.35;;;;;;;;;;1033538;28;100783;-61
2021/09/12 08:58:29;;;;;;;8.07;4.07;;;;;;;;;;1036332;28;99883;-62
2021/09/12 08:59:00;;;;;;;8.27;4.43;;;;;;;;;;1031559;28;100269;-59
2021/09/12 08:59:33;;;;;;;10.32;4.35;;;;;;;;;;1036662;28;99965;-61
2021/09/12 09:00:14;;;;;;;11.35;4.68;;;;;;;;;;1034879;28;100512;-59
2021/09/12 09:00:45;;;;;;;;;;;;;;;;;;1029557;28;100597;-47
2021/09/12 09:01:16;;;;;;;9.05;4.38;;;;;;;;;;1028059;28;101133;-62
2021/09/12 09:01:47;;;;;;;10.95;4.07;;;;;;;;;;1032000;28;100065;-62
2021/09/12 09:02:25;;;;;;;6.35;3.90;;;;;;;;;;1031343;28;100539;-59
2021/09/12 09:03:01;;;;;;;13.82;4.45;;;;;;;;;;1036437;28;99866;-50
2021/09/12 09:03:37;;;;;;;7.00;4.05;;;;;;;;;;1032933;28;100766;-63
2021/09/12 09:04:08;;;;;;;12.05;4.68;;;;;;;;;;1033695;28;99972;-47
2021/09/12 09:04:39;;;;;;;8.82;4.25;;;;;;;;;;1031087;28;100758;-50
2021/09/12 09:05:10;;;;;;;12.57;4.25;;;;;;;;;;1033151;28;99833;-62
2021/09/12 09:05:42;;;;;;;9.65;4.05;;;;;;;;;;1035312;28;100913;-53
2021/09/12 09:06:18;;;;;;;8.35;4.10;;;;;;;;;;1036369;28;100000;-62
2021/09/12 09:06:58;;;;;;;4.85;3.97;;;;;;;;;;1034785;28;100453;-62
2021/09/12 09:07:30;;;;;;;;;;;;;;;;;;1036972;28;99870;-60
2021/09/12 09:08:05;;;;;;;7.53;3.80;;;;;;;;;;1035293;28;100553;-59
2021/09/12 09:08:48;;;;;;;12.05;4.15;;;;;;;;;;1036666;28;99896;-60
2021/09/12 09:09:19;;;;;;;11.50;4.05;;;;;;;;;;1035428;28;100504;-60
2021/09/12 09:09:50;;;;;;;18.77;4.97;;;;;;;;;;1036530;28;99366;-60
2021/09/12 09:10:21;;;;;;;8.38;3.65;;;;;;;;;;1035018;28;100449;-59
2021/09/12 09:10:53;;;;;;;16.15;4.40;;;;;;;;;;1035930;28;99963;-60
2021/09/12 09:11:35;;;;;;;8.30;4.22;;;;;;;;;;1031182;28;100420;-60
2021/09/12 09:12:41;;;;;;;10.20;4.25;;;;;;;;;;1036221;28;99942;-62
2021/09/12 09:13:26;;;;;;;7.93;4.00;;;;;;;;;;1024848;28;100791;-59
2021/09/12 09:14:27;;;;;;;6.55;3.90;;;;;;;;;;1027800;28;99951;-58
2021/09/12 09:15:08;;;;;;;9.95;4.47;;;;;;;;;;1022428;28;100639;-58
2021/09/12 09:15:41;;;;;;;6.85;3.97;;;;;;;;;;1023782;28;99492;-47
2021/09/12 09:16:25;;;;;;;15.27;4.10;;;;;;;;;;1022556;28;100748;-59
2021/09/12 09:16:57;;;;;;;5.82;3.70;;;;;;;;;;1023866;28;100091;-46
2021/09/12 09:17:28;;;;;;;4.82;3.85;;;;;;;;;;1018145;28;100781;-58
2021/09/12 09:18:06;;;;;;;5.50;3.78;;;;;;;;;;1020029;28;100022;-48
2021/09/12 09:18:40;;;;;;;5.55;3.90;;;;;;;;;;1018257;28;101553;-48
2021/09/12 09:19:11;;;;;;;6.15;3.72;;;;;;;;;;1019782;28;100299;-48
2021/09/12 09:19:52;;;;;;;5.03;3.78;;;;;;;;;;1018301;28;100461;-48
2021/09/12 09:20:29;;;;;;;9.10;3.75;;;;;;;;;;1019879;28;99288;-47
2021/09/12 09:21:21;;;;;;;6.43;3.80;;;;;;;;;;1018410;28;101335;-52
2021/09/12 09:21:53;;;;;;;7.97;4.03;;;;;;;;;;1015489;28;100161;-61
2021/09/12 09:22:36;;;;;;;8.23;4.00;;;;;;;;;;1014407;28;100474;-49
2021/09/12 09:23:07;;;;;;;7.30;4.00;;;;;;;;;;1015965;28;100021;-56
2021/09/12 09:23:42;;;;;;;12.27;3.97;;;;;;;;;;1012336;28;100555;-50
2021/09/12 09:24:29;;;;;;;6.57;3.95;;;;;;;;;;1015873;28;100071;-54
2021/09/12 09:25:10;;;;;;;7.28;4.20;;;;;;;;;;1014741;28;100585;-46
2021/09/12 09:25:42;;;;;;;8.90;4.30;;;;;;;;;;1019400;28;100279;-48
2021/09/12 09:26:21;;;;;;;12.02;4.20;;;;;;;;;;1018751;28;100441;-48
2021/09/12 09:26:55;;;;;;;10.07;4.25;;;;;;;;;;1019828;28;99973;-58
2021/09/12 09:27:26;;;;;;;7.35;3.90;;;;;;;;;;1018374;28;100744;-59
2021/09/12 09:28:08;;;;;;;4.18;3.30;;;;;;;;;;1019764;28;99876;-62
2021/09/12 09:28:53;;;;;;;10.18;4.28;;;;;;;;;;1018361;28;100500;-58
2021/09/12 09:29:31;;;;;;;11.05;4.07;;;;;;;;;;1023204;28;101613;-58
2021/09/12 09:30:06;;;;;;;9.50;3.80;;;;;;;;;;1025776;28;101317;-56
2021/09/12 09:30:57;;;;;;;11.75;3.95;;;;;;;;;;1025063;28;100092;-58
2021/09/12 09:31:28;;;;;;;8.73;4.35;;;;;;;;;;1022858;28;100438;-56
2021/09/12 09:32:04;;;;;;;7.43;3.47;;;;;;;;;;1023829;28;99989;-48
2021/09/12 09:32:35;;;;;;;8.20;3.65;;;;;;;;;;1023163;28;100783;-54
2021/09/12 09:33:14;;;;;;;11.00;4.10;;;;;;;;;;1024639;28;100164;-50
2021/09/12 09:33:45;;;;;;;7.80;4.05;;;;;;;;;;1023345;28;102771;-57
2021/09/12 09:34:19;;;;;;;4.80;3.70;;;;;;;;;;1020733;28;100056;-57
2021/09/12 09:34:58;;;;;;;6.47;3.65;;;;;;;;;;1011109;28;100220;-56
2021/09/12 09:35:29;;;;;;;7.82;4.10;;;;;;;;;;1011625;28;100057;-56
2021/09/12 09:36:02;;;;;;;8.10;3.83;;;;;;;;;;1009549;28;100429;-50
2021/09/12 09:36:34;;;;;;;11.00;3.80;;;;;;;;;;1013826;28;100126;-47
2021/09/12 09:37:16;;;;;;;10.70;4.00;;;;;;;;;;1014075;28;101619;-48
2021/09/12 09:37:47;;;;;;;9.25;4.05;;;;;;;;;;1017779;28;100126;-56
2021/09/12 09:38:20;;;;;;;8.13;3.85;;;;;;;;;;1018230;28;100395;-57
2021/09/12 09:38:55;;;;;;;6.78;4.10;;;;;;;;;;1019482;28;100109;-58
2021/09/12 09:39:35;;;;;;;5.82;3.80;;;;;;;;;;1018596;28;100457;-47
2021/09/12 09:40:10;;;;;;;6.68;3.83;;;;;;;;;;1019251;28;100178;-51
2021/09/12 09:41:15;;;;;;;7.30;3.97;;;;;;;;;;1018667;28;100702;-47
2021/09/12 09:41:46;;;;;;;6.70;3.50;;;;;;;;;;1019073;28;100182;-45
2021/09/12 09:42:35;;;;;;;8.88;3.65;;;;;;;;;;1017929;28;100441;-56
2021/09/12 09:43:58;;;;;;;8.85;4.30;;;;;;;;;;1019495;28;100009;-44
2021/09/12 09:44:29;;;;;;;6.25;3.60;;;;;;;;;;1006231;28;101585;-47
2021/09/12 09:45:15;;;;;;;6.25;4.00;;;;;;;;;;1007698;28;99517;-52
2021/09/12 09:45:46;;;;;;;10.38;4.50;;;;;;;;;;1006583;28;100262;-46
2021/09/12 09:46:35;;;;;;;11.80;4.13;;;;;;;;;;1003592;29;100035;-59
2021/09/12 09:47:09;;;;;;;6.10;3.97;;;;;;;;;;1001662;29;100311;-47
2021/09/12 09:47:46;;;;;;;11.50;3.90;;;;;;;;;;1000798;29;100167;-55
2021/09/12 09:48:17;;;;;;;8.40;3.95;;;;;;;;;;1006280;28;100469;-53
2021/09/12 09:48:48;;;;;;;8.90;4.05;;;;;;;;;;1008862;28;99927;-50
2021/09/12 09:49:28;;;;;;;6.65;3.78;;;;;;;;;;1007657;28;100407;-49
2021/09/12 09:50:03;;;;;;;7.07;3.92;;;;;;;;;;1009063;28;100252;-48
2021/09/12 09:50:34;;;;;;;6.20;3.78;;;;;;;;;;1009590;28;101369;-60
2021/09/12 09:51:05;;;;;;;9.23;3.90;;;;;;;;;;1005119;29;99514;-51
2021/09/12 09:51:36;;;;;;;14.70;4.10;;;;;;;;;;1003786;29;100403;-47
2021/09/12 09:52:07;;;;;;;9.77;3.97;;;;;;;;;;1006566;28;100281;-47
2021/09/12 09:52:46;;;;;;;8.73;4.35;;;;;;;;;;1019519;28;101710;-60
2021/09/12 09:53:17;;;;;;;7.78;4.43;;;;;;;;;;1029134;28;99983;-47
2021/09/12 09:53:49;;;;;;;9.68;4.72;;;;;;;;;;1023803;28;100552;-52
2021/09/12 09:54:22;;;;;;;8.02;4.05;;;;;;;;;;1017182;28;100089;-57
2021/09/12 09:54:55;;;;;;;7.22;4.15;;;;;;;;;;1018557;28;100435;-58
2021/09/12 09:55:26;;;;;;;6.63;4.05;;;;;;;;;;1017441;28;100232;-49
2021/09/12 09:55:57;;;;;;;6.22;4.05;;;;;;;;;;1018938;28;100420;-48
2021/09/12 09:56:29;;;;;;;7.60;4.38;;;;;;;;;;1014582;28;100260;-57
2021/09/12 09:57:01;;;;;;;6.32;4.05;;;;;;;;;;1019906;28;100554;-58
2021/09/12 09:57:34;;;;;;;8.02;4.05;;;;;;;;;;1024796;28;100107;-46
2021/09/12 09:58:09;;;;;;;6.35;4.03;;;;;;;;;;1020176;28;100865;-50
2021/09/12 09:58:43;;;;;;;10.93;3.95;;;;;;;;;;1024833;28;99968;-49
2021/09/12 09:59:16;;;;;;;6.43;4.35;;;;;;;;;;1023532;28;101835;-58
2021/09/12 09:59:47;;;;;;;10.45;4.60;;;;;;;;;;1026341;28;99892;-49
2021/09/12 10:00:20;;;;;;;7.80;3.92;;;;;;;;;;1023429;28;100462;-50
2021/09/12 10:00:52;;;;;;;9.35;4.60;;;;;;;;;;1020521;28;100236;-48
2021/09/12 10:01:23;;;;;;;8.90;4.43;;;;;;;;;;1019540;28;100456;-48
2021/09/12 10:01:55;;;;;;;6.55;4.55;;;;;;;;;;1022748;28;100110;-47
2021/09/12 10:02:27;;;;;;;9.93;4.38;;;;;;;;;;1025481;28;100722;-50
2021/09/12 10:02:58;;;;;;;8.73;4.10;;;;;;;;;;1025722;28;100103;-59
2021/09/12 10:03:30;;;;;;;10.48;4.20;;;;;;;;;;1015307;28;101741;-58
2021/09/12 10:04:01;;;;;;;7.53;3.97;;;;;;;;;;1016163;28;100000;-58
2021/09/12 10:04:32;;;;;;;8.13;4.32;;;;;;;;;;1015400;28;101698;-58
2021/09/12 10:05:05;;;;;;;7.88;4.25;;;;;;;;;;1012442;28;100008;-58
2021/09/12 10:05:36;;;;;;;9.02;5.22;;;;;;;;;;1007552;28;101454;-58
2021/09/12 10:06:07;;;;;;;8.25;5.40;;;;;;;;;;1006833;28;99910;-58
2021/09/12 10:06:39;;;;;;;7.80;5.40;;;;;;;;;;1015691;28;100482;-58
2021/09/12 10:07:11;;;;;;;7.68;6.05;;;;;;;;;;1012854;28;99901;-58
2021/09/12 10:07:43;;;;;;;8.65;5.60;;;;;;;;;;1011468;28;100454;-58
2021/09/12 10:08:15;;;;;;;8.82;5.35;;;;;;;;;;1013512;28;100133;-58
2021/09/12 10:08:46;;;;;;;9.73;5.40;;;;;;;;;;1016146;28;100647;-58
2021/09/12 10:09:18;;;;;;;8.32;5.95;;;;;;;;;;1020908;28;100076;-58
2021/09/12 10:09:49;;;;;;;7.63;5.95;;;;;;;;;;1019569;28;100722;-49
2021/09/12 10:10:21;;;;;;;7.60;5.80;;;;;;;;;;1021035;28;100043;-49
2021/09/12 10:10:53;;;;;;;11.38;6.70;;;;;;;;;;1019141;28;101948;-51
2021/09/12 10:11:25;;;;;;;9.45;5.82;;;;;;;;;;1020884;28;99997;-49
2021/09/12 10:12:00;;;;;;;8.23;5.95;;;;;;;;;;1019367;28;101654;-48
2021/09/12 10:12:33;;;;;;;8.70;5.78;;;;;;;;;;1016944;28;100131;-50
2021/09/12 10:13:05;;;;;;;8.25;5.82;;;;;;;;;;1015332;28;101091;-46
2021/09/12 10:13:38;;;;;;;8.25;5.88;;;;;;;;;;1016686;28;100157;-46
2021/09/12 10:14:10;;;;;;;11.73;6.22;;;;;;;;;;1012542;28;100868;-49
2021/09/12 10:14:47;;;;;;;9.07;6.15;;;;;;;;;;1016701;28;100390;-46
2021/09/12 10:15:22;;;;;;;9.60;6.05;;;;;;;;;;1015717;28;100431;-49
2021/09/12 10:15:55;;;;;;;10.43;5.97;;;;;;;;;;1016580;28;100098;-57
2021/09/12 10:16:27;;;;;;;9.95;5.20;;;;;;;;;;1015837;28;100464;-62
2021/09/12 10:16:59;;;;;;;15.93;5.68;;;;;;;;;;1015311;28;100182;-57
2021/09/12 10:17:34;;;;;;;7.53;5.40;;;;;;;;;;1008637;28;100389;-58
2021/09/12 10:18:06;;;;;;;7.50;5.15;;;;;;;;;;1014174;28;100364;-58
2021/09/12 10:18:39;;;;;;;8.18;5.57;;;;;;;;;;1011567;28;100865;-49
2021/09/12 10:19:10;;;;;;;8.00;5.28;;;;;;;;;;1010141;28;99938;-55
2021/09/12 10:19:43;;;;;;;6.32;4.80;;;;;;;;;;1011461;28;100607;-61
2021/09/12 10:20:16;;;;;;;11.38;5.82;;;;;;;;;;1009762;28;100336;-61
2021/09/12 10:20:47;;;;;;;8.55;5.35;;;;;;;;;;1012333;28;101702;-49
2021/09/12 10:21:28;;;;;;;7.35;5.05;;;;;;;;;;1016901;28;99970;-50
2021/09/12 10:22:01;;;;;;;8.05;4.80;;;;;;;;;;1025262;28;100661;-53
2021/09/12 10:22:57;;;;;;;8.35;5.28;;;;;;;;;;1032886;28;100293;-50
2021/09/12 10:23:28;;;;;;;6.15;4.43;;;;;;;;;;1032412;28;100512;-52
2021/09/12 10:24:01;;;;;;;10.68;5.35;;;;;;;;;;1033319;28;100161;-50
2021/09/12 10:24:33;;;;;;;7.63;4.88;;;;;;;;;;1032364;28;100426;-53
2021/09/12 10:25:05;;;;;;;13.27;5.57;;;;;;;;;;1033249;28;99893;-49
2021/09/12 10:25:48;;;;;;;8.30;4.60;;;;;;;;;;1032390;28;100624;-51
2021/09/12 10:26:42;;;;;;;8.10;4.97;;;;;;;;;;1033402;28;99910;-54
2021/09/12 10:27:37;;;;;;;10.25;4.80;;;;;;;;;;1032150;28;100592;-51
2021/09/12 10:28:09;;;;;;;8.88;4.40;;;;;;;;;;1033106;28;100180;-52
2021/09/12 10:28:41;;;;;;;9.95;5.32;;;;;;;;;;1032108;28;100613;-51
2021/09/12 10:29:57;;;;;;;10.68;5.05;;;;;;;;;;1033142;28;100006;-51
2021/09/12 10:30:33;;;;;;;9.27;4.88;;;;;;;;;;1030785;28;100568;-52
2021/09/12 10:31:25;;;;;;;7.80;4.53;;;;;;;;;;1033320;28;100164;-52
2021/09/12 10:31:56;;;;;;;9.27;4.10;;;;;;;;;;1032201;28;100402;-51
2021/09/12 10:32:35;;;;;;;9.80;4.70;;;;;;;;;;1033145;28;99840;-49
2021/09/12 10:33:06;;;;;;;8.45;4.72;;;;;;;;;;1031931;28;100442;-49
2021/09/12 10:33:38;;;;;;;8.85;5.05;;;;;;;;;;1033467;28;100067;-49
2021/09/12 10:34:11;;;;;;;10.20;5.00;;;;;;;;;;1031911;28;100499;-52
2021/09/12 10:35:14;;;;;;;8.05;4.57;;;;;;;;;;1033406;28;100132;-50
2021/09/12 10:35:53;;;;;;;10.70;4.88;;;;;;;;;;1029690;28;100891;-52
2021/09/12 10:36:24;;;;;;;9.13;5.13;;;;;;;;;;1033076;28;100085;-54
2021/09/12 10:37:30;;;;;;;8.00;4.50;;;;;;;;;;1035777;28;103220;-54
2021/09/12 10:38:02;;;;;;;6.40;4.28;;;;;;;;;;1037219;28;99906;-48
2021/09/12 10:38:39;;;;;;;7.60;4.55;;;;;;;;;;1034681;28;100527;-51
2021/09/12 10:39:32;;;;;;;9.75;4.60;;;;;;;;;;1033219;28;99886;-49
2021/09/12 10:40:03;;;;;;;8.63;4.55;;;;;;;;;;1032265;28;100801;-48
2021/09/12 10:41:06;;;;;;;7.90;4.47;;;;;;;;;;1033396;28;99896;-54
2021/09/12 10:41:37;;;;;;;9.20;4.47;;;;;;;;;;1031967;28;100558;-53
2021/09/12 10:42:18;;;;;;;8.05;4.40;;;;;;;;;;1033138;28;99374;-51
2021/09/12 10:42:49;;;;;;;6.03;4.00;;;;;;;;;;1031136;28;100570;-49
2021/09/12 10:43:26;;;;;;;7.82;4.80;;;;;;;;;;1036179;28;100177;-50
2021/09/12 10:43:57;;;;;;;7.13;4.53;;;;;;;;;;1040901;27;100512;-50
2021/09/12 10:44:28;;;;;;;8.65;4.20;;;;;;;;;;1040059;28;99915;-50
2021/09/12 10:45:25;;;;;;;6.38;3.78;;;;;;;;;;1036293;28;100363;-53
2021/09/12 10:46:05;;;;;;;9.63;4.30;;;;;;;;;;1037375;28;99863;-53
2021/09/12 10:46:37;;;;;;;6.95;4.22;;;;;;;;;;1036082;28;101510;-53
2021/09/12 10:47:10;;;;;;;9.43;3.97;;;;;;;;;;1036993;28;99898;-53
2021/09/12 10:47:41;;;;;;;8.25;3.75;;;;;;;;;;1035941;28;100209;-50
2021/09/12 10:48:22;;;;;;;8.15;4.28;;;;;;;;;;1037230;28;100042;-51
2021/09/12 10:49:03;;;;;;;9.02;4.32;;;;;;;;;;1035625;28;101242;-53
2021/09/12 10:49:34;;;;;;;8.88;3.97;;;;;;;;;;1037324;28;99984;-53
2021/09/12 10:50:37;;;;;;;8.35;3.78;;;;;;;;;;1036372;28;100547;-50
2021/09/12 10:51:12;;;;;;;7.85;3.60;;;;;;;;;;1037156;28;100163;-50
2021/09/12 10:51:44;;;;;;;8.25;3.92;;;;;;;;;;1036161;28;100526;-54
2021/09/12 10:52:46;;;;;;;7.93;3.60;;;;;;;;;;1037050;28;99892;-50
2021/09/12 10:53:18;;;;;;;8.82;3.78;;;;;;;;;;1035561;28;101510;-59
2021/09/12 10:53:55;;;;;;;7.13;4.07;;;;;;;;;;1037083;28;99904;-54
2021/09/12 10:54:26;;;;;;;6.35;3.70;;;;;;;;;;1035977;28;100427;-52
2021/09/12 10:55:08;;;;;;;7.45;4.25;;;;;;;;;;1037414;28;100140;-49
2021/09/12 10:56:01;;;;;;;9.20;3.85;;;;;;;;;;1035959;28;100516;-50
2021/09/12 10:56:35;;;;;;;8.23;3.95;;;;;;;;;;1036819;28;100170;-62
2021/09/12 10:57:08;;;;;;;7.22;4.10;;;;;;;;;;1035771;28;100507;-51
2021/09/12 10:57:39;;;;;;;7.75;3.22;;;;;;;;;;1037373;28;99924;-55
2021/09/12 10:58:10;;;;;;;6.05;3.60;;;;;;;;;;1036359;28;100562;-49
2021/09/12 10:58:41;;;;;;;5.55;3.50;;;;;;;;;;1037188;28;100105;-50
2021/09/12 10:59:14;;;;;;;9.95;4.13;;;;;;;;;;1035461;28;100383;-52
2021/09/12 10:59:45;;;;;;;5.82;3.22;;;;;;;;;;1036899;28;99996;-52
2021/09/12 11:00:17;;;;;;;7.30;3.78;;;;;;;;;;1036417;28;100805;-51
2021/09/12 11:00:48;;;;;;;8.57;3.97;;;;;;;;;;1037227;28;100085;-51
2021/09/12 11:01:27;;;;;;;11.05;4.10;;;;;;;;;;1036367;28;100502;-52
2021/09/12 11:01:58;;;;;;;7.68;3.47;;;;;;;;;;1041144;28;99846;-53
2021/09/12 11:02:31;;;;;;;8.00;3.90;;;;;;;;;;1040325;28;100461;-51
2021/09/12 11:03:02;;;;;;;5.45;3.85;;;;;;;;;;1032856;28;100086;-50
2021/09/12 11:03:35;;;;;;;4.43;3.35;;;;;;;;;;1027203;28;101284;-59
2021/09/12 11:04:06;;;;;;;10.38;4.05;;;;;;;;;;1028882;28;100036;-49
2021/09/12 11:04:38;;;;;;;6.65;3.53;;;;;;;;;;1028938;28;100713;-49
2021/09/12 11:05:26;;;;;;;8.55;3.95;;;;;;;;;;1037319;28;100118;-51
2021/09/12 11:05:58;;;;;;;8.85;4.18;;;;;;;;;;1036263;28;100777;-51
2021/09/12 11:06:34;;;;;;;5.50;3.35;;;;;;;;;;1037648;28;99849;-48
2021/09/12 11:07:05;;;;;;;5.00;3.63;;;;;;;;;;1035962;28;100450;-50
2021/09/12 11:07:55;;;;;;;6.55;3.63;;;;;;;;;;1037324;28;100009;-50
2021/09/12 11:08:32;;;;;;;7.80;3.78;;;;;;;;;;1036181;28;100591;-53
2021/09/12 11:09:10;;;;;;;4.20;3.40;;;;;;;;;;1037307;28;99867;-54
2021/09/12 11:09:41;;;;;;;7.82;3.58;;;;;;;;;;1039798;28;100436;-51
2021/09/12 11:10:12;;;;;;;9.43;3.53;;;;;;;;;;1036820;28;100052;-62
2021/09/12 11:10:54;;;;;;;7.95;3.55;;;;;;;;;;1031267;28;100431;-60
2021/09/12 11:11:26;;;;;;;9.73;3.83;;;;;;;;;;1033221;28;100118;-53
2021/09/12 11:12:03;;;;;;;5.28;3.50;;;;;;;;;;1033268;28;100482;-53
2021/09/12 11:12:35;;;;;;;7.07;3.60;;;;;;;;;;1037643;28;100042;-59
2021/09/12 11:13:07;;;;;;;9.68;3.92;;;;;;;;;;1031497;28;100645;-59
2021/09/12 11:13:39;;;;;;;5.13;3.70;;;;;;;;;;1032998;28;99811;-59
2021/09/12 11:14:14;;;;;;;5.78;3.38;;;;;;;;;;1027402;28;100998;-57
2021/09/12 11:14:46;;;;;;;8.27;3.30;;;;;;;;;;1030339;28;100045;-51
2021/09/12 11:15:28;;;;;;;6.32;3.78;;;;;;;;;;1031527;28;101579;-57
2021/09/12 11:16:09;;;;;;;6.25;3.28;;;;;;;;;;1035214;28;99966;-53
2021/09/12 11:16:40;;;;;;;8.20;3.50;;;;;;;;;;1035684;28;100364;-62
2021/09/12 11:17:12;;;;;;;7.57;3.72;;;;;;;;;;1037066;28;100042;-58
2021/09/12 11:17:53;;;;;;;6.93;3.50;;;;;;;;;;1033963;28;100921;-61
2021/09/12 11:18:24;;;;;;;8.77;3.35;;;;;;;;;;1033493;28;100016;-58
2021/09/12 11:19:00;;;;;;;8.57;3.97;;;;;;;;;;1031884;28;100555;-52
2021/09/12 11:19:31;;;;;;;6.68;3.20;;;;;;;;;;1033309;28;99919;-49
2021/09/12 11:20:02;;;;;;;6.70;3.60;;;;;;;;;;1037203;28;100390;-50
2021/09/12 11:20:53;;;;;;;8.95;3.42;;;;;;;;;;1041305;28;99938;-47
2021/09/12 11:21:31;;;;;;;4.18;3.38;;;;;;;;;;1040049;28;101133;-47
2021/09/12 11:22:04;;;;;;;4.95;3.65;;;;;;;;;;1041291;28;99258;-51
2021/09/12 11:22:50;;;;;;;5.68;3.60;;;;;;;;;;1040584;27;100751;-52
2021/09/12 11:23:35;;;;;;;12.82;3.78;;;;;;;;;;1041498;27;100072;-58
2021/09/12 11:24:16;;;;;;;6.85;3.97;;;;;;;;;;1040100;27;100687;-61
2021/09/12 11:24:59;;;;;;;6.80;3.80;;;;;;;;;;1041120;28;99910;-47
2021/09/12 11:25:31;;;;;;;11.23;4.22;;;;;;;;;;1032271;28;100437;-49
2021/09/12 11:26:02;;;;;;;8.38;3.80;;;;;;;;;;1037098;28;100292;-49
2021/09/12 11:26:40;;;;;;;7.53;3.70;;;;;;;;;;1031686;28;100456;-48
2021/09/12 11:27:11;;;;;;;9.20;3.85;;;;;;;;;;1032882;28;99950;-48
2021/09/12 11:27:42;;;;;;;6.25;3.47;;;;;;;;;;1031682;28;101330;-58
2021/09/12 11:28:13;;;;;;;6.78;3.55;;;;;;;;;;1030200;28;99903;-47
2021/09/12 11:29:02;;;;;;;7.40;3.75;;;;;;;;;;1031889;28;100562;-60
2021/09/12 11:29:36;;;;;;;8.88;3.78;;;;;;;;;;1033172;28;100065;-62
2021/09/12 11:30:09;;;;;;;5.68;3.30;;;;;;;;;;1043049;27;100710;-60
2021/09/12 11:30:40;;;;;;;9.05;4.03;;;;;;;;;;1041053;28;100180;-47
2021/09/12 11:31:11;;;;;;;7.57;3.80;;;;;;;;;;1039933;28;100519;-47
2021/09/12 11:31:44;;;;;;;6.80;3.80;;;;;;;;;;1036895;28;100088;-59
2021/09/12 11:32:17;;;;;;;10.68;4.30;;;;;;;;;;1036235;28;101376;-56
2021/09/12 11:32:50;;;;;;;5.13;3.15;;;;;;;;;;1041206;28;100136;-49
2021/09/12 11:33:22;;;;;;;9.40;3.67;;;;;;;;;;1040016;28;100812;-50
2021/09/12 11:33:53;;;;;;;8.75;3.90;;;;;;;;;;1036990;28;100103;-48
2021/09/12 11:34:24;;;;;;;8.50;3.70;;;;;;;;;;1035717;28;100775;-49
2021/09/12 11:34:56;;;;;;;7.97;3.65;;;;;;;;;;1036903;28;99936;-50
2021/09/12 11:35:27;;;;;;;6.53;3.80;;;;;;;;;;1036338;28;100548;-48
2021/09/12 11:36:02;;;;;;;7.95;3.75;;;;;;;;;;1041348;27;100020;-49
2021/09/12 11:36:49;;;;;;;5.13;3.53;;;;;;;;;;1040325;27;100773;-48
2021/09/12 11:37:22;;;;;;;6.93;3.72;;;;;;;;;;1040957;28;99892;-49
2021/09/12 11:38:07;;;;;;;6.07;3.28;;;;;;;;;;1039982;28;100731;-49
2021/09/12 11:38:38;;;;;;;7.50;3.90;;;;;;;;;;1041029;28;100149;-47
2021/09/12 11:39:10;;;;;;;7.05;3.28;;;;;;;;;;1040302;28;100789;-58
2021/09/12 11:39:44;;;;;;;6.55;3.50;;;;;;;;;;1039990;27;100110;-58
2021/09/12 11:40:21;;;;;;;4.22;3.80;;;;;;;;;;1036129;28;101356;-48
2021/09/12 11:40:57;;;;;;;6.13;4.03;;;;;;;;;;1037312;28;100179;-49
2021/09/12 11:41:30;;;;;;;7.60;4.03;;;;;;;;;;1036000;28;100470;-61
2021/09/12 11:42:04;;;;;;;8.52;3.85;;;;;;;;;;1037639;28;100038;-51
2021/09/12 11:42:35;;;;;;;8.27;3.88;;;;;;;;;;1034850;28;100665;-49
2021/09/12 11:43:08;;;;;;;7.38;3.83;;;;;;;;;;1036687;28;100888;-50
2021/09/12 11:43:52;;;;;;;9.10;3.97;;;;;;;;;;1038356;27;101898;-57
2021/09/12 11:44:34;;;;;;;6.18;4.15;;;;;;;;;;1037104;28;100026;-47
2021/09/12 11:45:15;;;;;;;5.70;3.50;;;;;;;;;;1035595;28;101906;-47
2021/09/12 11:45:48;;;;;;;5.45;3.65;;;;;;;;;;1037599;28;100076;-54
2021/09/12 11:46:19;;;;;;;7.40;4.03;;;;;;;;;;1033976;28;100445;-60
2021/09/12 11:46:51;;;;;;;8.70;3.95;;;;;;;;;;1041314;28;99958;-53
2021/09/12 11:47:24;;;;;;;11.88;4.22;;;;;;;;;;1039809;28;100484;-52
2021/09/12 11:47:55;;;;;;;8.00;3.75;;;;;;;;;;1040450;28;100266;-57
2021/09/12 11:48:27;;;;;;;7.95;4.05;;;;;;;;;;1035698;28;100278;-55
2021/09/12 11:49:05;;;;;;;6.25;4.15;;;;;;;;;;1036989;28;99841;-48
2021/09/12 11:49:37;;;;;;;9.95;3.85;;;;;;;;;;1035501;28;100595;-61
2021/09/12 11:50:14;;;;;;;10.93;4.18;;;;;;;;;;1038701;28;99885;-48
2021/09/12 11:50:45;;;;;;;9.43;4.40;;;;;;;;;;1035796;28;100399;-56
2021/09/12 11:51:38;;;;;;;8.98;4.15;;;;;;;;;;1037108;28;100036;-57
2021/09/12 11:52:10;;;;;;;10.90;4.10;;;;;;;;;;1036985;28;100519;-60
2021/09/12 11:52:42;;;;;;;9.23;4.00;;;;;;;;;;1036997;28;99874;-48
2021/09/12 11:53:13;;;;;;;13.15;4.25;;;;;;;;;;1036097;28;100509;-47
2021/09/12 11:53:45;;;;;;;6.00;3.28;;;;;;;;;;1036639;28;99908;-49
2021/09/12 11:54:27;;;;;;;6.85;3.85;;;;;;;;;;1036590;28;100471;-54
2021/09/12 11:54:58;;;;;;;6.45;3.90;;;;;;;;;;1041083;28;99958;-60
2021/09/12 11:55:30;;;;;;;6.55;3.70;;;;;;;;;;1039649;28;100599;-59
2021/09/12 11:56:10;;;;;;;7.35;3.70;;;;;;;;;;1033665;28;99769;-47
2021/09/12 11:56:42;;;;;;;5.63;3.78;;;;;;;;;;1031613;28;100905;-47
2021/09/12 11:57:13;;;;;;;9.13;3.47;;;;;;;;;;1034760;28;100134;-48
2021/09/12 11:57:58;;;;;;;6.57;3.70;;;;;;;;;;1035580;28;100453;-46
2021/09/12 11:58:29;;;;;;;5.97;4.07;;;;;;;;;;1037150;28;99942;-48
2021/09/12 11:59:01;;;;;;;7.63;3.85;;;;;;;;;;1035771;28;100426;-48
2021/09/12 11:59:45;;;;;;;7.55;3.92;;;;;;;;;;1033071;28;100202;-59
2021/09/12 12:00:16;;;;;;;9.43;3.90;;;;;;;;;;1031328;28;100802;-46
2021/09/12 12:00:48;;;;;;;8.50;4.20;;;;;;;;;;1035063;28;99934;-58
2021/09/12 12:01:19;;;;;;;6.97;4.00;;;;;;;;;;1029994;28;100520;-60
2021/09/12 12:01:52;;;;;;;8.18;4.05;;;;;;;;;;1032909;28;99922;-58
2021/09/12 12:02:25;;;;;;;7.40;4.13;;;;;;;;;;1035910;28;100849;-57
2021/09/12 12:02:57;;;;;;;7.38;3.90;;;;;;;;;;1037942;28;99911;-47
2021/09/12 12:03:28;;;;;;;8.82;4.20;;;;;;;;;;1040053;27;101341;-51
2021/09/12 12:04:02;;;;;;;5.07;3.65;;;;;;;;;;1041006;28;100179;-47
2021/09/12 12:04:33;;;;;;;9.02;3.75;;;;;;;;;;1039968;28;100466;-60
2021/09/12 12:05:06;;;;;;;9.05;4.22;;;;;;;;;;1040757;28;100127;-61
2021/09/12 12:05:37;;;;;;;6.90;3.88;;;;;;;;;;1040113;28;100134;-58
2021/09/12 12:06:10;;;;;;;8.18;4.38;;;;;;;;;;1040999;27;100247;-58